createdAt,value
2022-09-26T00:01:38.031Z,84.69
2022-09-26T00:04:31.819Z,85.50
2022-09-26T00:07:00.377Z,84.03
2022-09-26T00:09:28.530Z,85.14
2022-09-26T00:11:56.174Z,83.05
2022-09-26T00:14:26.340Z,86.04
2022-09-26T00:16:54.541Z,84.89
2022-09-26T00:19:22.858Z,85.37
2022-09-26T00:21:50.673Z,86.90
2022-09-26T00:24:18.706Z,85.43
2022-09-26T00:26:46.355Z,84.95
2022-09-26T00:29:14.759Z,85.60
2022-09-26T00:31:44.841Z,84.15
2022-09-26T00:34:17.258Z,83.87
2022-09-26T00:36:45.269Z,86.56
2022-09-26T00:39:14.567Z,84.32
2022-09-26T00:41:42.839Z,85.56
2022-09-26T00:44:49.402Z,86.05
2022-09-26T00:47:37.209Z,87.25
2022-09-26T00:50:10.870Z,86.70
2022-09-26T00:52:42.169Z,86.09
2022-09-26T00:55:14.269Z,84.94
2022-09-26T00:57:46.820Z,84.26
2022-09-26T01:00:15.909Z,85.08
2022-09-26T01:02:45.763Z,87.02
2022-09-26T01:05:16.701Z,85.13
2022-09-26T01:07:45.037Z,85.61
2022-09-26T01:10:13.290Z,85.13
2022-09-26T01:12:41.130Z,86.46
2022-09-26T01:15:09.751Z,87.83
2022-09-26T01:17:39.149Z,83.67
2022-09-26T01:20:21.649Z,86.29
2022-09-26T01:23:17.599Z,86.48
2022-09-26T01:26:04.201Z,86.64
2022-09-26T01:28:32.139Z,85.13
2022-09-26T01:31:22.827Z,86.40
2022-09-26T01:34:14.328Z,85.23
2022-09-26T01:37:00.420Z,86.58
2022-09-26T01:39:50.749Z,84.22
2022-09-26T01:43:03.162Z,85.66
2022-09-26T01:46:07.918Z,86.25
2022-09-26T01:48:47.911Z,87.72
2022-09-26T01:51:23.960Z,86.67
2022-09-26T01:54:12.991Z,87.68
2022-09-26T01:56:42.338Z,86.14
2022-09-26T01:59:17.292Z,86.94
2022-09-26T02:01:50.800Z,84.28
2022-09-26T02:04:23.040Z,87.14
2022-09-26T02:06:57.919Z,85.50
2022-09-26T02:09:36.748Z,84.30
2022-09-26T02:12:07.329Z,85.32
2022-09-26T02:14:38.408Z,85.63
2022-09-26T02:17:10.301Z,84.48
2022-09-26T02:19:52.320Z,83.59
2022-09-26T02:22:20.188Z,85.64
2022-09-26T02:24:48.329Z,85.96
2022-09-26T02:27:16.395Z,86.79
2022-09-26T02:29:44.120Z,87.59
2022-09-26T02:32:17.253Z,87.33
2022-09-26T02:34:47.785Z,90.00
2022-09-26T02:37:17.323Z,91.27
2022-09-26T02:39:46.543Z,89.70
2022-09-26T02:42:36.781Z,88.45
2022-09-26T02:45:32.728Z,82.36
2022-09-26T02:48:08.288Z,88.43
2022-09-26T02:50:47.127Z,85.53
2022-09-26T02:53:27.069Z,86.62
2022-09-26T02:56:35.010Z,88.27
2022-09-26T02:59:11.060Z,89.56
2022-09-26T03:01:48.254Z,88.66
2022-09-26T03:04:42.181Z,86.87
2022-09-26T03:07:16.590Z,84.50
2022-09-26T03:09:44.662Z,87.06
2022-09-26T03:12:13.780Z,87.78
2022-09-26T03:14:42.548Z,86.16
2022-09-26T03:17:10.722Z,85.72
2022-09-26T03:19:46.604Z,83.56
2022-09-26T03:22:15.502Z,82.84
2022-09-26T03:24:44.482Z,86.01
2022-09-26T03:27:13.891Z,87.24
2022-09-26T03:29:42.014Z,87.54
2022-09-26T03:32:10.510Z,86.26
2022-09-26T03:34:41.374Z,85.07
2022-09-26T03:37:09.162Z,86.21
2022-09-26T03:39:38.103Z,86.67
2022-09-26T03:42:05.979Z,87.17
2022-09-26T03:44:34.471Z,87.36
2022-09-26T03:47:04.879Z,86.74
2022-09-26T03:49:35.229Z,85.87
2022-09-26T03:52:03.972Z,84.59
2022-09-26T03:54:32.031Z,86.75
2022-09-26T03:56:59.691Z,86.26
2022-09-26T03:59:28.099Z,86.56
2022-09-26T04:01:55.921Z,86.99
2022-09-26T04:04:24.639Z,84.26
2022-09-26T04:06:52.829Z,86.15
2022-09-26T04:09:21.146Z,85.50
2022-09-26T04:11:50.010Z,85.41
2022-09-26T04:14:17.878Z,85.92
2022-09-26T04:16:47.304Z,85.74
2022-09-26T04:19:16.023Z,85.73
2022-09-26T04:21:43.800Z,87.17
2022-09-26T04:24:15.800Z,86.87
2022-09-26T04:26:45.529Z,87.57
2022-09-26T04:29:13.490Z,88.35
2022-09-26T04:31:44.654Z,86.66
2022-09-26T04:34:13.349Z,87.64
2022-09-26T04:36:41.808Z,89.85
2022-09-26T04:39:09.698Z,90.31
2022-09-26T04:41:38.909Z,89.59
2022-09-26T04:44:07.779Z,87.29
2022-09-26T04:46:35.589Z,88.76
2022-09-26T04:49:04.791Z,89.17
2022-09-26T04:51:33.310Z,88.52
2022-09-26T04:54:01.899Z,89.12
2022-09-26T04:56:33.412Z,88.75
2022-09-26T04:59:01.122Z,88.68
2022-09-26T05:01:30.411Z,88.58
2022-09-26T05:03:59.732Z,89.19
2022-09-26T05:06:27.720Z,89.21
2022-09-26T05:08:55.512Z,84.24
2022-09-26T05:11:28.515Z,87.93
2022-09-26T05:13:57.218Z,84.79
2022-09-26T05:16:29.252Z,84.37
2022-09-26T05:18:57.598Z,83.04
2022-09-26T05:21:26.309Z,82.27
2022-09-26T05:24:13.307Z,85.02
2022-09-26T05:26:43.954Z,88.97
2022-09-26T05:29:12.557Z,85.21
2022-09-26T05:31:40.898Z,83.93
2022-09-26T05:34:17.072Z,86.53
2022-09-26T05:36:48.032Z,85.91
2022-09-26T05:39:42.952Z,87.09
2022-09-26T05:42:11.070Z,87.42
2022-09-26T05:44:40.511Z,89.80
2022-09-26T05:47:09.232Z,88.44
2022-09-26T05:49:37.527Z,89.80
2022-09-26T05:52:06.341Z,86.41
2022-09-26T05:54:34.079Z,86.43
2022-09-26T05:57:03.673Z,88.12
2022-09-26T05:59:35.899Z,87.85
2022-09-26T06:02:08.225Z,84.81
2022-09-26T06:04:37.898Z,88.23
2022-09-26T06:07:07.591Z,88.64
2022-09-26T06:09:36.401Z,91.76
2022-09-26T06:12:06.376Z,88.64
2022-09-26T06:14:34.616Z,88.83
2022-09-26T06:17:02.228Z,89.65
2022-09-26T06:19:30.131Z,89.32
2022-09-26T06:22:11.010Z,88.96
2022-09-26T06:24:45.244Z,88.19
2022-09-26T06:27:15.030Z,87.31
2022-09-26T06:29:43.223Z,88.84
2022-09-26T06:32:10.965Z,89.90
2022-09-26T06:34:40.442Z,88.61
2022-09-26T06:37:09.196Z,88.93
2022-09-26T06:39:37.189Z,86.46
2022-09-26T06:42:09.213Z,87.87
2022-09-26T06:44:47.770Z,88.97
2022-09-26T06:47:16.693Z,89.38
2022-09-26T06:49:47.678Z,87.61
2022-09-26T06:52:20.351Z,87.07
2022-09-26T06:54:49.411Z,85.09
2022-09-26T06:57:17.896Z,84.73
2022-09-26T06:59:45.665Z,87.16
2022-09-26T07:02:17.665Z,87.89
2022-09-26T07:04:53.065Z,87.84
2022-09-26T07:07:22.871Z,88.17
2022-09-26T07:09:54.521Z,83.64
2022-09-26T07:12:26.602Z,87.75
2022-09-26T07:15:09.096Z,86.50
2022-09-26T07:17:52.429Z,87.03
2022-09-26T07:20:22.734Z,85.73
2022-09-26T07:22:55.189Z,85.94
2022-09-26T07:25:24.014Z,84.58
2022-09-26T07:27:53.700Z,83.83
2022-09-26T07:30:22.130Z,85.79
2022-09-26T07:32:50.974Z,86.30
2022-09-26T07:35:20.171Z,87.03
2022-09-26T07:37:53.472Z,84.75
2022-09-26T07:40:26.669Z,85.42
2022-09-26T07:43:18.734Z,83.47
2022-09-26T07:46:10.728Z,82.43
2022-09-26T07:48:57.875Z,82.26
2022-09-26T07:51:29.533Z,82.41
2022-09-26T07:53:57.492Z,82.65
2022-09-26T07:56:29.438Z,82.81
2022-09-26T07:58:57.305Z,82.42
2022-09-26T08:01:26.138Z,84.35
2022-09-26T08:03:58.431Z,82.31
2022-09-26T08:06:27.760Z,83.83
2022-09-26T08:08:56.232Z,85.06
2022-09-26T08:11:44.735Z,82.05
2022-09-26T08:14:14.108Z,81.41
2022-09-26T08:16:43.252Z,81.75
2022-09-26T08:19:17.664Z,81.74
2022-09-26T08:21:45.954Z,82.86
2022-09-26T08:24:14.721Z,82.29
2022-09-26T08:26:45.496Z,83.93
2022-09-26T08:29:14.300Z,82.67
2022-09-26T08:31:42.361Z,82.19
2022-09-26T08:34:10.233Z,82.65
2022-09-26T08:36:38.490Z,82.43
2022-09-26T08:39:06.578Z,82.98
2022-09-26T08:41:57.013Z,81.84
2022-09-26T08:45:01.271Z,82.39
2022-09-26T08:47:49.979Z,81.89
2022-09-26T08:50:32.918Z,83.68
2022-09-26T08:53:10.991Z,82.59
2022-09-26T08:55:45.673Z,79.95
2022-09-26T08:58:43.531Z,82.21
2022-09-26T09:01:21.928Z,80.73
2022-09-26T09:03:54.901Z,80.29
2022-09-26T09:06:23.834Z,79.30
2022-09-26T09:08:53.071Z,79.14
2022-09-26T09:11:40.322Z,78.23
2022-09-26T09:14:27.430Z,76.19
2022-09-26T09:17:18.156Z,75.68
2022-09-26T09:19:56.388Z,78.95
2022-09-26T09:22:45.062Z,77.77
2022-09-26T09:25:24.016Z,77.67
2022-09-26T09:28:08.125Z,74.59
2022-09-26T09:30:48.982Z,74.07
2022-09-26T09:33:22.562Z,74.32
2022-09-26T09:35:54.535Z,72.77
2022-09-26T09:38:27.629Z,75.11
2022-09-26T09:41:09.661Z,73.41
2022-09-26T09:43:45.299Z,72.45
2022-09-26T09:46:18.878Z,70.03
2022-09-26T09:48:48.232Z,68.43
2022-09-26T09:51:39.121Z,68.16
2022-09-26T09:54:16.986Z,66.94
2022-09-26T09:56:52.545Z,66.29
2022-09-26T09:59:58.387Z,70.57
2022-09-26T10:02:33.433Z,66.60
2022-09-26T10:05:16.251Z,67.52
2022-09-26T10:07:48.650Z,63.28
2022-09-26T10:10:22.144Z,61.49
2022-09-26T10:12:53.610Z,60.14
2022-09-26T10:15:26.502Z,57.70
2022-09-26T10:18:24.760Z,61.31
2022-09-26T10:23:34.516Z,59.94
2022-09-26T10:26:08.400Z,60.64
2022-09-26T10:29:00.115Z,59.83
2022-09-26T10:31:41.349Z,59.96
2022-09-26T10:34:31.574Z,58.82
2022-09-26T10:37:29.783Z,59.73
2022-09-26T10:40:17.637Z,59.18
2022-09-26T10:42:48.757Z,59.82
2022-09-26T10:45:20.530Z,61.36
2022-09-26T10:47:52.959Z,61.79
2022-09-26T10:50:28.149Z,63.45
2022-09-26T10:53:09.430Z,62.29
2022-09-26T10:55:44.722Z,62.32
2022-09-26T10:58:19.059Z,63.67
2022-09-26T11:00:51.867Z,63.13
2022-09-26T11:03:23.068Z,64.26
2022-09-26T11:05:58.532Z,63.99
2022-09-26T11:08:29.973Z,63.61
2022-09-26T11:11:00.938Z,63.72
2022-09-26T11:13:39.445Z,63.94
2022-09-26T11:16:13.592Z,62.21
2022-09-26T11:18:43.291Z,59.82
2022-09-26T11:21:28.235Z,60.42
2022-09-26T11:24:16.058Z,59.30
2022-09-26T11:26:59.926Z,56.54
2022-09-26T11:29:48.240Z,57.92
2022-09-26T11:32:29.380Z,57.91
2022-09-26T11:35:03.637Z,57.50
2022-09-26T11:38:13.869Z,55.57
2022-09-26T11:40:50.090Z,52.48
2022-09-26T11:43:53.652Z,53.29
2022-09-26T11:46:34.491Z,54.16
2022-09-26T11:49:11.337Z,53.63
2022-09-26T11:52:01.360Z,53.61
2022-09-26T11:54:58.929Z,51.58
2022-09-26T11:58:09.093Z,55.43
2022-09-26T12:01:12.399Z,55.75
2022-09-26T12:03:56.421Z,52.31
2022-09-26T12:06:33.677Z,50.44
2022-09-26T12:09:11.859Z,51.83
2022-09-26T12:11:49.947Z,50.71
2022-09-26T12:14:37.321Z,54.16
2022-09-26T12:17:36.499Z,53.83
2022-09-26T12:20:08.260Z,51.44
2022-09-26T12:22:46.842Z,51.28
2022-09-26T12:25:32.070Z,51.72
2022-09-26T12:28:19.969Z,52.63
2022-09-26T12:30:55.270Z,54.84
2022-09-26T12:33:26.010Z,52.95
2022-09-26T12:36:11.211Z,52.12
2022-09-26T12:38:39.150Z,51.91
2022-09-26T12:41:14.633Z,52.56
2022-09-26T12:43:53.614Z,51.34
2022-09-26T12:46:47.699Z,50.83
2022-09-26T12:49:31.719Z,51.03
2022-09-26T12:52:27.150Z,52.27
2022-09-26T12:55:08.369Z,52.20
2022-09-26T12:58:03.032Z,54.06
2022-09-26T13:00:36.402Z,55.00
2022-09-26T13:03:22.898Z,54.16
2022-09-26T13:06:25.782Z,53.94
2022-09-26T13:09:09.768Z,54.94
2022-09-26T13:11:44.275Z,54.67
2022-09-26T13:14:29.782Z,55.17
2022-09-26T13:17:17.220Z,53.74
2022-09-26T13:20:04.201Z,55.14
2022-09-26T13:22:39.864Z,54.98
2022-09-26T13:25:20.859Z,54.50
2022-09-26T13:27:56.439Z,54.54
2022-09-26T13:30:29.411Z,56.32
2022-09-26T13:33:14.329Z,55.45
2022-09-26T13:35:43.892Z,55.94
2022-09-26T13:38:15.620Z,56.21
2022-09-26T13:41:10.501Z,57.58
2022-09-26T13:44:03.581Z,55.73
2022-09-26T13:47:04.202Z,54.90
2022-09-26T13:49:51.241Z,55.25
2022-09-26T13:52:40.448Z,56.24
2022-09-26T13:55:20.114Z,56.71
2022-09-26T13:58:18.129Z,56.03
2022-09-26T14:00:53.434Z,55.21
2022-09-26T14:03:23.539Z,55.56
2022-09-26T14:05:53.292Z,54.96
2022-09-26T14:08:43.163Z,55.58
2022-09-26T14:11:28.862Z,55.67
2022-09-26T14:14:19.043Z,55.53
2022-09-26T14:16:53.331Z,55.60
2022-09-26T14:19:41.589Z,56.98
2022-09-26T14:22:21.660Z,56.47
2022-09-26T14:24:51.611Z,55.49
2022-09-26T14:27:41.450Z,54.67
2022-09-26T14:30:29.337Z,56.44
2022-09-26T14:33:02.242Z,56.99
2022-09-26T14:35:38.874Z,55.35
2022-09-26T14:38:15.791Z,56.42
2022-09-26T14:41:04.320Z,55.69
2022-09-26T14:43:32.386Z,55.78
2022-09-26T14:46:04.176Z,56.48
2022-09-26T14:48:37.261Z,57.38
2022-09-26T14:51:11.529Z,56.64
2022-09-26T14:53:48.402Z,57.28
2022-09-26T14:56:51.149Z,56.35
2022-09-26T14:59:25.052Z,56.49
2022-09-26T15:01:54.196Z,57.14
2022-09-26T15:04:28.320Z,58.22
2022-09-26T15:07:06.311Z,57.88
2022-09-26T15:09:40.554Z,59.24
2022-09-26T15:12:14.507Z,57.39
2022-09-26T15:15:09.861Z,59.23
2022-09-26T15:17:41.613Z,57.15
2022-09-26T15:20:15.175Z,57.74
2022-09-26T15:22:44.339Z,60.03
2022-09-26T15:25:25.948Z,60.54
2022-09-26T15:27:55.181Z,62.01
2022-09-26T15:30:27.302Z,60.48
2022-09-26T15:33:03.401Z,61.78
2022-09-26T15:35:32.078Z,62.50
2022-09-26T15:38:09.802Z,66.06
2022-09-26T15:40:38.042Z,65.54
2022-09-26T15:43:11.609Z,64.97
2022-09-26T15:45:49.054Z,67.46
2022-09-26T15:48:19.731Z,67.07
2022-09-26T15:50:54.219Z,71.60
2022-09-26T15:53:39.692Z,68.26
2022-09-26T15:56:10.109Z,72.11
2022-09-26T15:58:52.689Z,69.61
2022-09-26T16:01:23.122Z,70.67
2022-09-26T16:04:01.130Z,74.60
2022-09-26T16:06:37.028Z,75.12
2022-09-26T16:09:06.600Z,71.35
2022-09-26T16:11:42.510Z,69.17
2022-09-26T16:14:16.962Z,68.96
2022-09-26T16:16:44.733Z,72.14
2022-09-26T16:19:29.697Z,72.94
2022-09-26T16:21:57.580Z,73.41
2022-09-26T16:24:32.563Z,77.97
2022-09-26T16:27:01.992Z,79.52
2022-09-26T16:29:35.206Z,81.51
2022-09-26T16:32:04.663Z,79.24
2022-09-26T16:34:33.192Z,74.60
2022-09-26T16:37:01.080Z,71.35
2022-09-26T16:39:30.831Z,71.40
2022-09-26T16:42:13.808Z,77.42
2022-09-26T16:44:42.703Z,75.79
2022-09-26T16:47:32.154Z,73.08
2022-09-26T16:50:33.290Z,72.35
2022-09-26T16:53:07.013Z,72.93
2022-09-26T16:55:36.507Z,73.38
2022-09-26T16:58:05.304Z,72.89
2022-09-26T17:00:53.323Z,78.00
2022-09-26T17:03:30.065Z,80.25
2022-09-26T17:05:59.530Z,82.26
2022-09-26T17:08:28.264Z,85.95
2022-09-26T17:11:00.544Z,80.56
2022-09-26T17:13:31.157Z,79.65
2022-09-26T17:16:01.397Z,78.77
2022-09-26T17:18:32.570Z,76.09
2022-09-26T17:21:01.345Z,76.46
2022-09-26T17:23:45.575Z,74.69
2022-09-26T17:26:22.089Z,73.83
2022-09-26T17:28:51.430Z,75.29
2022-09-26T17:31:20.450Z,80.23
2022-09-26T17:33:51.899Z,79.77
2022-09-26T17:36:25.911Z,80.85
2022-09-26T17:38:56.628Z,77.64
2022-09-26T17:41:28.036Z,77.34
2022-09-26T17:44:01.082Z,78.31
2022-09-26T17:46:29.752Z,80.29
2022-09-26T17:48:59.419Z,79.54
2022-09-26T17:51:27.352Z,80.88
2022-09-26T17:53:57.605Z,80.22
2022-09-26T17:56:26.619Z,76.54
2022-09-26T17:58:55.901Z,80.12
2022-09-26T18:01:30.395Z,83.74
2022-09-26T18:04:02.745Z,80.44
2022-09-26T18:06:33.120Z,84.50
2022-09-26T18:09:10.333Z,81.67
2022-09-26T18:11:39.150Z,80.36
2022-09-26T18:14:08.329Z,81.88
2022-09-26T18:16:36.531Z,78.00
2022-09-26T18:19:07.483Z,76.84
2022-09-26T18:21:36.153Z,76.37
2022-09-26T18:24:07.035Z,75.96
2022-09-26T18:26:47.481Z,76.68
2022-09-26T18:29:21.370Z,76.42
2022-09-26T18:31:49.915Z,77.25
2022-09-26T18:34:20.579Z,79.40
2022-09-26T18:36:50.223Z,78.92
2022-09-26T18:39:18.810Z,77.24
2022-09-26T18:41:49.428Z,78.78
2022-09-26T18:44:17.872Z,82.73
2022-09-26T18:46:47.332Z,81.51
2022-09-26T18:49:16.023Z,80.04
2022-09-26T18:51:44.661Z,79.85
2022-09-26T18:54:14.411Z,80.68
2022-09-26T18:57:01.240Z,80.47
2022-09-26T18:59:32.543Z,80.18
2022-09-26T19:02:02.113Z,80.94
2022-09-26T19:04:31.480Z,78.79
2022-09-26T19:07:01.456Z,80.85
2022-09-26T19:09:33.200Z,79.15
2022-09-26T19:12:03.052Z,79.21
2022-09-26T19:14:31.991Z,80.14
2022-09-26T19:17:00.745Z,79.49
2022-09-26T19:19:30.777Z,79.10
2022-09-26T19:22:00.542Z,80.20
2022-09-26T19:24:38.763Z,83.31
2022-09-26T19:27:22.183Z,86.33
2022-09-26T19:30:16.640Z,81.20
2022-09-26T19:32:51.216Z,82.13
2022-09-26T19:35:32.139Z,81.09
2022-09-26T19:38:01.260Z,79.58
2022-09-26T19:40:29.851Z,80.50
2022-09-26T19:42:58.330Z,82.67
2022-09-26T19:45:26.577Z,81.48
2022-09-26T19:47:56.639Z,81.01
2022-09-26T19:50:25.966Z,81.48
2022-09-26T19:52:56.181Z,82.37
2022-09-26T19:55:26.683Z,83.49
2022-09-26T19:57:57.539Z,81.43
2022-09-26T20:00:26.430Z,86.07
2022-09-26T20:02:55.110Z,88.39
2022-09-26T20:05:26.178Z,85.31
2022-09-26T20:07:54.409Z,87.42
2022-09-26T20:10:25.440Z,82.28
2022-09-26T20:12:54.096Z,80.66
2022-09-26T20:15:22.100Z,79.36
2022-09-26T20:17:50.981Z,78.57
2022-09-26T20:20:24.691Z,79.81
2022-09-26T20:22:53.881Z,84.69
2022-09-26T20:25:30.122Z,84.45
2022-09-26T20:27:58.052Z,80.80
2022-09-26T20:30:45.207Z,79.61
2022-09-26T20:33:14.056Z,84.05
2022-09-26T20:35:44.138Z,81.97
2022-09-26T20:38:19.301Z,84.14
2022-09-26T20:40:49.293Z,88.02
2022-09-26T20:43:24.610Z,85.35
2022-09-26T20:45:52.875Z,84.66
2022-09-26T20:48:23.427Z,87.71
2022-09-26T20:50:51.450Z,82.53
2022-09-26T20:53:21.640Z,81.75
2022-09-26T20:55:50.325Z,81.44
2022-09-26T20:58:18.235Z,82.96
2022-09-26T21:00:47.440Z,86.52
2022-09-26T21:03:17.600Z,88.02
2022-09-26T21:05:46.148Z,88.43
2022-09-26T21:08:27.232Z,87.49
2022-09-26T21:10:56.179Z,84.65
2022-09-26T21:13:24.974Z,85.27
2022-09-26T21:15:53.118Z,87.12
2022-09-26T21:18:25.562Z,83.94
2022-09-26T21:20:54.339Z,80.59
2022-09-26T21:23:24.253Z,84.35
2022-09-26T21:25:51.899Z,89.26
2022-09-26T21:28:27.793Z,87.61
2022-09-26T21:30:59.440Z,89.57
2022-09-26T21:33:27.520Z,88.16
2022-09-26T21:35:55.359Z,87.08
2022-09-26T21:38:23.050Z,83.60
2022-09-26T21:40:56.098Z,81.84
2022-09-26T21:43:26.993Z,86.65
2022-09-26T21:45:55.135Z,83.76
2022-09-26T21:48:23.140Z,80.21
2022-09-26T21:50:57.652Z,82.48
2022-09-26T21:53:33.422Z,83.89
2022-09-26T21:56:07.294Z,82.44
2022-09-26T21:58:38.630Z,82.07
2022-09-26T22:01:06.446Z,83.33
2022-09-26T22:03:34.784Z,83.62
2022-09-26T22:06:07.559Z,86.03
2022-09-26T22:08:36.969Z,84.87
2022-09-26T22:11:04.670Z,86.38
2022-09-26T22:13:35.270Z,88.26
2022-09-26T22:16:12.131Z,89.82
2022-09-26T22:18:40.551Z,88.60
2022-09-26T22:21:10.291Z,89.22
2022-09-26T22:23:38.373Z,84.68
2022-09-26T22:26:06.866Z,81.79
2022-09-26T22:28:34.982Z,81.35
2022-09-26T22:31:04.934Z,83.26
2022-09-26T22:33:33.323Z,85.06
2022-09-26T22:36:01.521Z,83.32
2022-09-26T22:38:29.203Z,82.11
2022-09-26T22:41:03.213Z,81.73
2022-09-26T22:43:32.578Z,86.17
2022-09-26T22:46:01.885Z,82.92
2022-09-26T22:48:31.580Z,82.90
2022-09-26T22:50:59.719Z,86.77
2022-09-26T22:53:27.810Z,85.31
2022-09-26T22:55:56.048Z,87.15
2022-09-26T22:58:25.640Z,87.39
2022-09-26T23:00:53.304Z,84.75
2022-09-26T23:03:21.056Z,82.66
2022-09-26T23:05:51.321Z,85.31
2022-09-26T23:08:18.932Z,86.97
2022-09-26T23:10:55.546Z,86.62
2022-09-26T23:13:27.463Z,84.45
2022-09-26T23:15:55.636Z,82.37
2022-09-26T23:18:23.575Z,80.36
2022-09-26T23:20:52.606Z,79.19
2022-09-26T23:23:20.555Z,80.96
2022-09-26T23:25:50.063Z,79.78
2022-09-26T23:28:17.889Z,80.52
2022-09-26T23:30:46.186Z,81.17
2022-09-26T23:33:14.192Z,78.54
2022-09-26T23:35:41.920Z,81.63
2022-09-26T23:38:09.576Z,78.49
2022-09-26T23:40:37.896Z,78.84
2022-09-26T23:43:05.651Z,81.72
2022-09-26T23:45:33.499Z,82.87
2022-09-26T23:48:01.730Z,79.89
2022-09-26T23:50:29.308Z,78.23
2022-09-26T23:52:57.327Z,78.89
2022-09-26T23:55:25.374Z,79.11
2022-09-26T23:57:56.419Z,79.69
